createdAt,value
2018-02-06T00:00:17.016Z,16.65
2018-02-06T00:02:46.341Z,14.77
2018-02-06T00:05:15.122Z,19.05
2018-02-06T00:07:43.701Z,13.02
2018-02-06T00:10:12.670Z,14.87
2018-02-06T00:12:42.575Z,11.55
2018-02-06T00:15:11.370Z,15.23
2018-02-06T00:17:40.132Z,14.50
2018-02-06T00:20:09.068Z,19.33
2018-02-06T00:22:51.344Z,14.15
2018-02-06T00:25:19.827Z,16.00
2018-02-06T00:27:48.835Z,18.52
2018-02-06T00:30:18.869Z,15.07
2018-02-06T00:32:47.488Z,13.90
2018-02-06T00:35:16.107Z,13.02
2018-02-06T00:37:45.720Z,14.77
2018-02-06T00:40:14.307Z,21.25
2018-02-06T00:42:42.811Z,16.73
2018-02-06T00:45:12.310Z,15.82
2018-02-06T00:47:42.899Z,16.45
2018-02-06T00:50:11.421Z,16.40
2018-02-06T00:52:40.362Z,17.12
2018-02-06T00:55:08.984Z,13.68
2018-02-06T00:57:37.942Z,13.75
2018-02-06T01:00:06.368Z,18.50
2018-02-06T01:02:35.360Z,14.30
2018-02-06T01:05:04.721Z,16.40
2018-02-06T01:07:33.344Z,13.88
2018-02-06T01:10:03.200Z,14.20
2018-02-06T01:12:31.926Z,16.83
2018-02-06T01:15:00.647Z,17.40
2018-02-06T01:17:30.186Z,15.45
2018-02-06T01:19:59.074Z,14.50
2018-02-06T01:22:27.931Z,13.52
2018-02-06T01:24:56.759Z,22.45
2018-02-06T01:27:25.966Z,14.68
2018-02-06T01:29:55.908Z,18.95
2018-02-06T01:32:24.823Z,16.92
2018-02-06T01:34:54.848Z,20.20
2018-02-06T01:37:23.939Z,19.87
2018-02-06T01:39:52.648Z,14.85
2018-02-06T01:42:21.195Z,17.15
2018-02-06T01:44:49.978Z,14.45
2018-02-06T01:47:19.280Z,14.32
2018-02-06T01:50:05.369Z,19.33
2018-02-06T01:52:34.338Z,14.57
2018-02-06T01:55:03.976Z,14.82
2018-02-06T01:57:33.037Z,17.35
2018-02-06T02:00:01.607Z,14.80
2018-02-06T02:02:31.948Z,14.55
2018-02-06T02:05:01.152Z,16.65
2018-02-06T02:07:30.746Z,15.80
2018-02-06T02:10:00.219Z,19.87
2018-02-06T02:12:28.876Z,19.37
2018-02-06T02:14:58.238Z,15.90
2018-02-06T02:17:27.509Z,17.15
2018-02-06T02:19:55.972Z,16.70
2018-02-06T02:22:24.580Z,17.12
2018-02-06T02:24:53.889Z,17.23
2018-02-06T02:27:22.430Z,16.45
2018-02-06T02:29:50.859Z,18.35
2018-02-06T02:32:20.212Z,19.37
2018-02-06T02:34:48.862Z,18.15
2018-02-06T02:37:18.163Z,16.37
2018-02-06T02:39:46.587Z,19.50
2018-02-06T04:38:48.412Z,17.52
2018-02-06T04:41:16.897Z,17.90
2018-02-06T04:43:45.703Z,18.23
2018-02-06T04:46:14.187Z,21.85
2018-02-06T04:48:42.544Z,13.57
2018-02-06T04:51:11.044Z,21.87
2018-02-06T04:53:39.773Z,18.40
2018-02-06T04:56:08.228Z,22.60
2018-02-06T04:58:37.717Z,20.00
2018-02-06T05:01:08.068Z,22.90
2018-02-06T05:03:36.665Z,18.42
2018-02-06T05:06:05.973Z,15.15
2018-02-06T05:08:34.375Z,20.10
2018-02-06T05:11:03.906Z,20.05
2018-02-06T05:13:32.561Z,21.80
2018-02-06T05:16:01.131Z,20.48
2018-02-06T05:18:30.336Z,24.65
2018-02-06T05:20:59.794Z,25.20
2018-02-06T05:23:28.421Z,21.10
2018-02-06T05:25:57.728Z,22.85
2018-02-06T05:28:28.456Z,22.13
2018-02-06T05:30:57.160Z,22.20
2018-02-06T05:33:26.472Z,23.42
2018-02-06T05:35:55.286Z,22.02
2018-02-06T05:38:24.356Z,22.52
2018-02-06T05:40:54.104Z,22.25
2018-02-06T05:43:23.558Z,28.08
2018-02-06T05:45:52.459Z,23.30
2018-02-06T05:48:22.168Z,21.77
2018-02-06T05:50:51.511Z,24.17
2018-02-06T05:53:20.046Z,21.33
2018-02-06T05:55:49.397Z,24.02
2018-02-06T05:58:18.878Z,26.90
2018-02-06T06:00:49.811Z,30.42
2018-02-06T06:03:19.867Z,25.17
2018-02-06T06:05:49.055Z,22.58
2018-02-06T06:08:18.357Z,22.15
2018-02-06T06:10:47.083Z,27.20
2018-02-06T06:13:16.675Z,28.00
2018-02-06T06:15:45.859Z,24.25
2018-02-06T06:18:14.868Z,22.27
2018-02-06T06:20:45.224Z,22.60
2018-02-06T06:23:14.560Z,23.25
2018-02-06T06:25:44.094Z,27.23
2018-02-06T06:28:12.907Z,24.65
2018-02-06T06:30:41.355Z,24.75
2018-02-06T06:33:09.891Z,23.50
2018-02-06T06:35:39.040Z,21.17
2018-02-06T06:38:07.486Z,25.15
2018-02-06T06:40:36.747Z,25.45
2018-02-06T06:43:05.196Z,20.15
2018-02-06T06:45:33.668Z,19.83
2018-02-06T06:48:02.282Z,29.48
2018-02-06T06:50:31.610Z,28.33
2018-02-06T06:53:00.761Z,24.95
2018-02-06T06:55:29.106Z,31.90
2018-02-06T06:57:57.521Z,27.70
2018-02-06T07:00:25.881Z,25.55
2018-02-06T07:02:54.223Z,27.17
2018-02-06T07:05:23.356Z,25.73
2018-02-06T07:07:51.645Z,17.45
2018-02-06T07:10:20.005Z,22.27
2018-02-06T07:12:48.298Z,29.10
2018-02-06T07:15:16.607Z,24.35
2018-02-06T07:17:46.479Z,27.33
2018-02-06T07:20:14.871Z,20.83
2018-02-06T07:22:43.243Z,29.52
2018-02-06T07:25:11.588Z,26.25
2018-02-06T07:27:40.030Z,28.35
2018-02-06T07:30:08.374Z,28.67
2018-02-06T07:32:37.568Z,24.50
2018-02-06T07:35:05.967Z,26.77
2018-02-06T07:37:34.695Z,24.23
2018-02-06T07:40:03.231Z,26.90
2018-02-06T07:42:31.755Z,24.80
2018-02-06T07:45:00.104Z,23.62
2018-02-06T07:47:30.246Z,26.25
2018-02-06T07:49:58.604Z,26.45
2018-02-06T07:52:26.930Z,26.00
2018-02-06T07:54:55.269Z,25.27
2018-02-06T07:57:24.396Z,28.38
2018-02-06T07:59:52.802Z,26.85
2018-02-06T08:02:21.331Z,25.27
2018-02-06T08:04:50.851Z,27.45
2018-02-06T08:07:19.418Z,25.60
2018-02-06T08:09:47.754Z,22.70
2018-02-06T08:12:17.718Z,29.77
2018-02-06T08:14:46.040Z,26.40
2018-02-06T08:17:14.396Z,24.02
2018-02-06T08:19:42.712Z,28.50
2018-02-06T08:22:11.806Z,27.62
2018-02-06T08:24:40.973Z,28.35
2018-02-06T08:27:10.440Z,23.92
2018-02-06T08:29:38.838Z,27.50
2018-02-06T08:32:07.220Z,23.90
2018-02-06T08:34:36.786Z,26.58
2018-02-06T08:37:05.102Z,26.77
2018-02-06T08:39:33.710Z,27.52
2018-02-06T08:42:02.306Z,24.83
2018-02-06T08:44:30.663Z,27.48
2018-02-06T08:46:59.028Z,28.50
2018-02-06T08:52:02.187Z,24.90
2018-02-06T08:54:30.529Z,25.25
2018-02-06T08:57:00.375Z,31.60
2018-02-06T08:59:28.720Z,28.35
2018-02-06T09:01:57.128Z,24.20
2018-02-06T09:04:25.635Z,28.08
2018-02-06T09:06:53.975Z,20.95
2018-02-06T09:09:23.185Z,24.73
2018-02-06T09:11:52.246Z,25.75
2018-02-06T09:14:20.577Z,26.90
2018-02-06T09:16:48.913Z,27.50
2018-02-06T09:19:17.394Z,26.67
2018-02-06T09:21:46.658Z,29.05
2018-02-06T09:24:15.023Z,25.20
2018-02-06T09:26:44.577Z,24.63
2018-02-06T09:29:12.916Z,30.08
2018-02-06T09:31:41.297Z,31.20
2018-02-06T09:34:09.752Z,24.20
2018-02-06T09:36:38.088Z,24.52
2018-02-06T09:39:07.178Z,26.52
2018-02-06T09:41:36.278Z,26.02
2018-02-06T09:44:05.374Z,30.27
2018-02-06T09:46:33.834Z,28.87
2018-02-06T09:49:03.769Z,28.30
2018-02-06T09:51:32.102Z,29.25
2018-02-06T09:54:00.462Z,28.38
2018-02-06T09:56:28.758Z,26.05
2018-02-06T09:58:57.127Z,26.95
2018-02-06T10:01:26.044Z,23.95
2018-02-06T10:03:54.361Z,30.27
2018-02-06T10:06:22.683Z,27.60
2018-02-06T10:08:51.771Z,28.62
2018-02-06T10:11:20.590Z,29.08
2018-02-06T10:13:49.765Z,28.55
2018-02-06T10:16:18.110Z,26.58
2018-02-06T10:18:46.426Z,29.70
2018-02-06T10:21:14.777Z,29.23
2018-02-06T10:23:43.095Z,25.62
2018-02-06T10:26:12.186Z,34.83
2018-02-06T10:28:41.371Z,31.35
2018-02-06T10:31:09.705Z,26.48
2018-02-06T10:33:38.050Z,27.17
2018-02-06T10:36:07.215Z,28.10
2018-02-06T10:38:35.834Z,26.90
2018-02-06T10:41:04.131Z,26.95
2018-02-06T10:43:32.696Z,26.40
2018-02-06T10:46:01.002Z,25.45
2018-02-06T10:48:29.444Z,28.35
2018-02-06T10:50:58.641Z,26.33
2018-02-06T10:53:26.947Z,26.73
2018-02-06T10:55:55.255Z,28.85
2018-02-06T10:58:23.551Z,25.55
2018-02-06T11:00:52.628Z,30.60
2018-02-06T11:03:20.938Z,33.58
2018-02-06T11:05:49.406Z,29.00
2018-02-06T11:08:17.777Z,30.05
2018-02-06T11:10:46.847Z,30.10
2018-02-06T11:13:15.290Z,30.65
2018-02-06T11:15:43.764Z,30.10
2018-02-06T11:18:12.260Z,27.52
2018-02-06T11:20:40.619Z,29.15
2018-02-06T11:23:09.565Z,31.23
2018-02-06T11:25:37.892Z,28.30
2018-02-06T11:28:06.186Z,31.50
2018-02-06T11:30:34.558Z,25.77
2018-02-06T11:33:02.923Z,30.27
2018-02-06T11:35:31.254Z,31.17
2018-02-06T11:38:00.355Z,29.10
2018-02-06T11:40:29.478Z,26.70
2018-02-06T11:42:58.798Z,28.50
2018-02-06T11:45:27.119Z,24.20
2018-02-06T11:47:56.200Z,27.23
2018-02-06T11:50:24.642Z,31.27
2018-02-06T11:52:53.036Z,23.73
2018-02-06T11:55:21.619Z,33.72
2018-02-06T11:57:49.941Z,28.33
2018-02-06T12:00:19.037Z,28.87
2018-02-06T12:02:47.389Z,29.75
2018-02-06T12:05:15.720Z,30.73
2018-02-06T12:07:44.264Z,28.25
2018-02-06T12:10:13.613Z,25.80
2018-02-06T12:12:42.020Z,27.87
2018-02-06T12:15:10.532Z,27.30
2018-02-06T12:17:38.889Z,28.33
2018-02-06T12:20:07.972Z,27.48
2018-02-06T12:22:37.339Z,25.90
2018-02-06T12:25:06.491Z,27.35
2018-02-06T12:27:36.150Z,29.12
2018-02-06T12:30:04.868Z,26.25
2018-02-06T12:32:33.979Z,27.45
2018-02-06T12:35:03.082Z,23.67
2018-02-06T12:37:31.427Z,26.90
2018-02-06T12:39:59.798Z,26.60
2018-02-06T12:42:28.492Z,27.02
2018-02-06T12:44:57.209Z,29.02
2018-02-06T12:47:25.818Z,25.95
2018-02-06T12:49:54.245Z,25.62
2018-02-06T12:52:23.353Z,31.23
2018-02-06T12:54:51.778Z,28.98
2018-02-06T12:57:21.033Z,29.37
2018-02-06T12:59:49.427Z,27.45
2018-02-06T13:02:17.792Z,28.73
2018-02-06T13:04:46.315Z,24.90
2018-02-06T13:07:15.477Z,32.17
2018-02-06T13:09:43.999Z,29.90
2018-02-06T13:12:12.473Z,33.75
2018-02-06T13:14:41.059Z,30.17
2018-02-06T13:17:09.422Z,33.05
2018-02-06T13:19:37.738Z,27.08
2018-02-06T13:22:06.369Z,34.78
2018-02-06T13:24:34.819Z,31.08
2018-02-06T13:27:04.131Z,33.05
2018-02-06T13:29:33.545Z,28.90
2018-02-06T13:32:03.028Z,29.83
2018-02-06T13:34:31.531Z,24.35
2018-02-06T13:36:59.881Z,29.08
2018-02-06T13:39:28.493Z,22.42
2018-02-06T13:41:57.801Z,26.98
2018-02-06T13:44:27.121Z,27.37
2018-02-06T13:46:56.654Z,28.62
2018-02-06T13:49:25.067Z,27.37
2018-02-06T13:51:54.423Z,28.95
